Time;durP1;ratioP1;P1;durP2;ratioP2;P2;SDS_P1;SDS_P2;PMS_P1;PMS_P2;Temp;Humidity;BMP_temperature;BMP_pressure;BME280_temperature;BME280_humidity;BME280_pressure;Samples;Min_cycle;Max_cycle;Signal;HPM_P1;HPM_P2
2022/01/17 00:01:48;;;;;;;25.17;12.73;;;;;;;3.71;100.00;100442.58;4915780;58;1138459;-68
2022/01/17 00:06:54;;;;;;;26.50;13.23;;;;;;;3.75;100.00;100427.59;4924521;58;1139267;-70
2022/01/17 00:12:00;;;;;;;30.90;12.60;;;;;;;3.77;100.00;100416.13;5007317;58;1139053;-69
2022/01/17 00:17:28;;;;;;;34.60;13.70;;;;;;;3.81;100.00;100405.05;5044717;58;1138984;-69
2022/01/17 00:22:19;;;;;;;34.93;13.10;;;;;;;3.84;100.00;100389.17;5034109;58;1139179;-67
2022/01/17 00:27:24;;;;;;;32.77;14.90;;;;;;;3.87;100.00;100382.02;5041728;58;1139079;-69
2022/01/17 00:32:33;;;;;;;32.40;13.60;;;;;;;3.92;100.00;100380.94;5049980;58;1139402;-68
2022/01/17 00:37:40;;;;;;;29.30;12.67;;;;;;;3.96;100.00;100358.94;5050181;58;1139006;-70
2022/01/17 00:42:45;;;;;;;24.17;12.70;;;;;;;3.99;100.00;100353.51;5050312;58;1136966;-71
2022/01/17 00:47:51;;;;;;;30.50;11.57;;;;;;;4.05;100.00;100344.04;5050194;58;1136940;-70
2022/01/17 00:53:04;;;;;;;21.97;9.13;;;;;;;4.07;100.00;100329.10;5061533;58;1140636;-72
2022/01/17 00:58:07;;;;;;;27.40;13.27;;;;;;;4.09;100.00;100321.56;5047663;58;1139480;-70
2022/01/17 01:03:13;;;;;;;25.10;10.87;;;;;;;4.12;100.00;100317.47;5050424;58;1141007;-68
2022/01/17 01:08:18;;;;;;;20.43;9.53;;;;;;;4.13;100.00;100307.35;5049922;58;1141152;-71
2022/01/17 01:13:28;;;;;;;19.80;8.50;;;;;;;4.18;100.00;100330.20;5049130;58;1139003;-70
2022/01/17 01:29:05;;;;;;;21.30;9.93;;;;;;;4.26;100.00;100318.03;5042593;58;1139619;-68
2022/01/17 01:34:13;;;;;;;17.97;8.77;;;;;;;4.26;100.00;100301.02;5049139;58;1138909;-70
2022/01/17 01:39:24;;;;;;;22.97;9.07;;;;;;;4.28;100.00;100289.15;5045386;58;1139310;-71
2022/01/17 01:44:30;;;;;;;16.97;8.97;;;;;;;4.29;100.00;100268.09;5038526;58;1139025;-67
2022/01/17 01:49:37;;;;;;;18.27;7.50;;;;;;;4.37;100.00;100271.14;5048979;58;1139187;-70
2022/01/17 01:54:43;;;;;;;12.95;6.50;;;;;;;4.40;100.00;100255.73;5048841;58;1139000;-70
2022/01/17 01:59:49;;;;;;;12.40;6.87;;;;;;;4.42;100.00;100245.56;5048578;58;1139395;-69
2022/01/17 02:04:54;;;;;;;8.23;5.37;;;;;;;4.49;100.00;100249.50;5041791;58;1138901;-68
2022/01/17 02:10:00;;;;;;;11.97;6.03;;;;;;;4.51;100.00;100224.08;5028601;58;1137596;-68
2022/01/17 02:15:08;;;;;;;11.33;4.70;;;;;;;4.51;100.00;100233.24;4889117;59;1138877;-70
2022/01/17 02:20:23;;;;;;;10.10;5.17;;;;;;;4.54;100.00;100224.37;4888843;60;1139029;-69
2022/01/17 02:25:29;;;;;;;8.30;4.72;;;;;;;4.57;100.00;100218.96;4880803;60;1139315;-68
2022/01/17 02:30:35;;;;;;;9.97;5.10;;;;;;;4.60;100.00;100219.60;4706111;61;1137073;-69
2022/01/17 02:35:42;;;;;;;12.93;4.40;;;;;;;4.62;100.00;100222.60;4794918;61;1137175;-67
2022/01/17 02:40:50;;;;;;;5.43;3.53;;;;;;;4.63;100.00;100212.04;4696223;62;1139362;-67
2022/01/17 02:51:04;;;;;;;9.83;3.87;;;;;;;4.67;100.00;100182.59;4769537;61;1139042;-67
2022/01/17 02:56:11;;;;;;;13.13;4.20;;;;;;;4.67;100.00;100156.40;4803485;60;1137062;-70
2022/01/17 03:01:27;;;;;;;5.73;2.53;;;;;;;4.69;100.00;100145.37;4730326;62;1139014;-67
2022/01/17 03:06:33;;;;;;;9.77;4.47;;;;;;;4.71;100.00;100160.53;4794780;61;1137006;-70
2022/01/17 03:11:38;;;;;;;12.50;3.87;;;;;;;4.71;100.00;100150.05;4863699;59;1137073;-68
2022/01/17 03:16:47;;;;;;;14.80;3.77;;;;;;;4.75;100.00;100155.00;4950664;59;1139360;-70
2022/01/17 03:21:52;;;;;;;5.30;1.80;;;;;;;4.75;100.00;100160.23;4948762;59;1137451;-70
2022/01/17 03:26:58;;;;;;;9.98;1.65;;;;;;;4.76;100.00;100156.69;4948510;59;1134882;-69
2022/01/17 03:32:04;;;;;;;5.67;1.40;;;;;;;4.79;100.00;100138.17;4955578;59;1135041;-67
2022/01/17 03:37:10;;;;;;;7.73;2.00;;;;;;;4.80;100.00;100129.84;4956197;59;1134858;-70
2022/01/17 03:42:18;;;;;;;6.83;1.45;;;;;;;4.78;100.00;100110.28;4949190;59;1134918;-70
2022/01/17 03:47:24;;;;;;;6.20;2.13;;;;;;;4.79;100.00;100104.58;4840622;60;1135399;-71
2022/01/17 03:52:30;;;;;;;4.03;1.27;;;;;;;4.79;100.00;100091.02;4959639;59;1135273;-71
2022/01/17 03:57:36;;;;;;;8.53;1.73;;;;;;;4.78;100.00;100099.80;4914183;59;1135068;-69
2022/01/17 04:02:42;;;;;;;8.73;1.40;;;;;;;4.79;100.00;100088.86;4958624;59;1135106;-70
2022/01/17 04:07:48;;;;;;;12.13;2.43;;;;;;;4.78;100.00;100101.58;5010893;59;1134936;-68
2022/01/17 04:13:01;;;;;;;4.60;1.42;;;;;;;4.78;100.00;100103.73;4876406;59;1137054;-70
2022/01/17 04:18:05;;;;;;;2.50;1.07;;;;;;;4.77;100.00;100083.71;4676495;61;1135230;-70
2022/01/17 04:23:13;;;;;;;5.13;1.57;;;;;;;4.75;100.00;100087.35;4799878;61;1134808;-69
2022/01/17 04:28:19;;;;;;;14.43;1.60;;;;;;;4.71;100.00;100070.16;4891817;59;1135393;-67
2022/01/17 04:33:25;;;;;;;5.93;0.97;;;;;;;4.70;100.00;100061.92;4885417;59;1136837;-70
2022/01/17 04:38:31;;;;;;;6.37;1.37;;;;;;;4.68;100.00;100048.07;4883424;59;1135144;-68
2022/01/17 04:48:41;;;;;;;4.60;1.50;;;;;;;4.62;100.00;100047.97;4886468;59;1132816;-68
2022/01/17 04:54:04;;;;;;;5.20;1.00;;;;;;;4.59;100.00;100043.75;4883623;59;1137047;-70
2022/01/17 04:58:55;;;;;;;9.13;1.87;;;;;;;4.60;100.00;100026.27;4883126;59;1137166;-70
2022/01/17 05:04:01;;;;;;;4.17;1.22;;;;;;;4.62;100.00;100020.93;4893017;59;1136989;-69
2022/01/17 05:09:07;;;;;;;4.07;0.90;;;;;;;4.57;100.00;100008.14;4889334;60;1137213;-68
2022/01/17 05:14:14;;;;;;;9.73;0.97;;;;;;;4.54;100.00;100013.09;4884127;60;1137040;-69
2022/01/17 05:24:43;;;;;;;8.63;1.70;;;;;;;4.51;100.00;99980.54;5001088;59;1135070;-67
2022/01/17 05:29:49;;;;;;;6.90;1.23;;;;;;;4.51;100.00;99960.06;4928396;59;1135020;-70
2022/01/17 05:34:55;;;;;;;3.70;1.17;;;;;;;4.49;100.00;99925.27;5001040;59;1134936;-67
2022/01/17 05:40:02;;;;;;;5.93;2.07;;;;;;;4.47;100.00;99925.83;5010064;58;1135015;-69
2022/01/17 05:45:11;;;;;;;6.97;1.43;;;;;;;4.45;100.00;99917.22;5042538;58;1134933;-70
2022/01/17 05:50:17;;;;;;;9.13;2.10;;;;;;;4.41;100.00;99889.57;5042386;58;1134917;-70
2022/01/17 05:55:23;;;;;;;9.83;1.33;;;;;;;4.30;100.00;99839.64;5055403;58;1135037;-69
2022/01/17 06:00:29;;;;;;;16.90;2.47;;;;;;;4.23;100.00;99845.27;5061729;58;1134934;-68
2022/01/17 06:05:35;;;;;;;2.50;1.37;;;;;;;4.11;100.00;99823.80;4995187;58;1136948;-70
2022/01/17 06:10:41;;;;;;;7.03;1.27;;;;;;;4.00;100.00;99826.22;5047573;58;1134887;-70
2022/01/17 06:15:48;;;;;;;9.00;0.90;;;;;;;3.91;100.00;99817.64;4899656;60;1134949;-67
2022/01/17 06:20:54;;;;;;;3.30;0.77;;;;;;;3.84;100.00;99788.38;4994665;58;1134869;-68
2022/01/17 06:25:59;;;;;;;6.67;1.45;;;;;;;3.80;100.00;99792.61;4917884;60;1134978;-68
2022/01/17 06:31:05;;;;;;;7.03;1.17;;;;;;;3.77;100.00;99755.72;4982080;59;1134850;-70
2022/01/17 06:36:11;;;;;;;1.70;1.30;;;;;;;3.76;100.00;99752.72;4899618;59;1134785;-67
2022/01/17 06:41:19;;;;;;;3.95;1.50;;;;;;;3.74;100.00;99746.74;4976451;58;1134935;-70
2022/01/17 06:46:25;;;;;;;4.83;1.63;;;;;;;3.73;100.00;99733.76;4987882;58;1134796;-68
2022/01/17 06:51:31;;;;;;;11.93;1.40;;;;;;;3.74;100.00;99710.59;4874352;60;1134849;-70
2022/01/17 06:56:43;;;;;;;12.73;1.77;;;;;;;3.72;100.00;99712.00;4897633;60;1136940;-68
2022/01/17 07:01:44;;;;;;;3.30;1.33;;;;;;;3.73;100.00;99723.30;5001091;58;1136974;-70
2022/01/17 07:06:56;;;;;;;6.97;2.50;;;;;;;3.74;100.00;99744.13;4923744;60;1135054;-69
2022/01/17 07:12:02;;;;;;;5.97;1.60;;;;;;;3.78;100.00;99732.55;4989891;58;1134786;-70
2022/01/17 07:17:10;;;;;;;25.97;2.30;;;;;;;3.86;100.00;99737.28;4943650;58;1134986;-70
2022/01/17 07:22:16;;;;;;;15.60;2.73;;;;;;;3.88;100.00;99726.27;4972628;59;1137138;-71
2022/01/17 07:27:21;;;;;;;9.23;3.33;;;;;;;3.94;100.00;99724.58;4978740;59;1137147;-71
2022/01/17 07:32:27;;;;;;;11.63;1.70;;;;;;;3.96;100.00;99642.09;4989836;59;1134889;-71
2022/01/17 07:37:35;;;;;;;47.93;25.50;;;;;;;4.03;100.00;99625.04;5001181;58;1137086;-68
2022/01/17 07:42:41;;;;;;;29.43;13.57;;;;;;;4.08;100.00;99612.04;4924956;60;1136980;-67
2022/01/17 07:52:56;;;;;;;6.97;3.90;;;;;;;4.16;100.00;99620.21;4903843;59;1134805;-67
2022/01/17 07:58:03;;;;;;;14.33;3.43;;;;;;;4.23;100.00;99639.82;4904347;60;1132922;-68
2022/01/17 08:03:09;;;;;;;19.37;7.43;;;;;;;4.31;100.00;99615.74;4983473;58;1134852;-70
2022/01/17 08:08:15;;;;;;;54.23;24.77;;;;;;;4.38;100.00;99617.50;4983620;58;1134870;-71
2022/01/17 08:13:21;;;;;;;4.50;2.50;;;;;;;4.46;100.00;99608.65;5058362;57;1137020;-71
2022/01/17 08:18:27;;;;;;;36.87;6.90;;;;;;;4.48;100.00;99618.55;5019188;58;1132882;-68
2022/01/17 08:23:33;;;;;;;8.37;2.33;;;;;;;4.43;100.00;99624.09;4969664;59;1134959;-66
2022/01/17 08:28:41;;;;;;;4.90;2.30;;;;;;;4.45;100.00;99633.98;4969641;59;1133059;-68
2022/01/17 08:33:47;;;;;;;10.07;4.33;;;;;;;4.42;100.00;99647.31;4969932;58;1132732;-66
2022/01/17 08:38:53;;;;;;;22.57;1.80;;;;;;;4.39;100.00;99739.59;4969729;59;1134950;-69
2022/01/17 10:59:51;;;;;;;4.90;2.73;;;;;;;2.67;100.00;100217.48;5438435;54;46465;-74
2022/01/17 11:04:55;;;;;;;26.83;9.90;;;;;;;2.90;100.00;100208.04;5122042;57;1132898;-72
2022/01/17 11:10:07;;;;;;;5.37;1.63;;;;;;;3.11;100.00;100212.14;5034138;56;1138999;-71
2022/01/17 11:15:08;;;;;;;4.67;2.73;;;;;;;3.24;100.00;100213.65;5095716;56;1136979;-72
2022/01/17 11:20:16;;;;;;;5.83;1.80;;;;;;;3.39;100.00;100215.92;4992909;59;1137356;-69
2022/01/17 11:25:25;;;;;;;4.23;2.20;;;;;;;3.50;100.00;100241.05;5062262;57;1136985;-71
2022/01/17 11:30:34;;;;;;;8.93;3.80;;;;;;;3.68;100.00;100253.13;4996797;59;1137029;-76
2022/01/17 11:35:44;;;;;;;6.67;2.33;;;;;;;3.84;100.00;100243.52;4943485;58;1137274;-66
2022/01/17 11:40:50;;;;;;;9.30;2.67;;;;;;;3.96;100.00;100260.35;5108969;57;1136934;-75
2022/01/17 11:45:56;;;;;;;12.70;4.43;;;;;;;4.31;100.00;100267.55;4917426;59;1136996;-69
2022/01/17 11:51:14;;;;;;;22.43;4.47;;;;;;;4.31;100.00;100267.55;4972576;58;1139052;-70
2022/01/17 12:08:26;;;;;;;7.77;4.00;;;;;;;4.84;97.85;100289.87;5279342;55;46375;-77
2022/01/17 12:30:15;;;;;;;18.57;6.93;;;;;;;5.55;88.14;100353.81;5248591;56;46277;-74
2022/01/17 12:35:29;;;;;;;28.17;12.97;;;;;;;5.99;82.40;100419.87;5044665;57;1132842;-73
2022/01/17 12:40:41;;;;;;;20.17;8.30;;;;;;;6.06;72.56;100426.45;5019228;58;1139102;-78
2022/01/17 12:45:59;;;;;;;12.47;6.33;;;;;;;6.31;73.97;100404.78;5011463;58;1137048;-79
2022/01/17 12:51:08;;;;;;;22.17;5.90;;;;;;;6.57;70.35;100421.58;4863671;60;1136937;-72
2022/01/17 12:56:14;;;;;;;29.63;19.80;;;;;;;6.61;69.04;100442.75;4886697;59;1137363;-73
2022/01/17 13:01:20;;;;;;;9.60;4.63;;;;;;;6.66;67.63;100447.27;4886520;59;1139200;-76
2022/01/17 13:06:26;;;;;;;10.30;5.60;;;;;;;6.86;66.51;100456.06;4906185;59;1134909;-80
2022/01/17 13:11:32;;;;;;;9.47;4.43;;;;;;;6.97;62.96;100478.57;4874386;58;1137343;-74
2022/01/17 13:16:41;;;;;;;9.77;6.33;;;;;;;6.88;58.50;100482.23;4976875;58;1134806;-77
2022/01/17 13:21:50;;;;;;;15.83;11.03;;;;;;;7.06;62.85;100488.96;5107042;57;1134969;-77
2022/01/17 13:27:00;;;;;;;12.77;7.27;;;;;;;7.08;58.62;100524.38;5131630;57;1139126;-76
2022/01/17 13:32:08;;;;;;;15.10;7.63;;;;;;;7.29;60.01;100540.12;5126671;57;1136891;-76
2022/01/17 13:37:15;;;;;;;14.73;7.20;;;;;;;7.39;59.49;100570.16;5063578;58;1137273;-75
2022/01/17 13:42:24;;;;;;;5.27;2.93;;;;;;;7.74;62.98;100575.33;5131600;57;1136935;-79
2022/01/17 13:47:30;;;;;;;17.57;9.53;;;;;;;7.78;57.88;100592.25;5131480;57;1135068;-79
2022/01/17 13:52:36;;;;;;;77.60;44.20;;;;;;;6.94;55.77;100606.27;5128107;56;1136971;-80
2022/01/17 13:57:43;;;;;;;116.60;63.63;;;;;;;6.62;60.42;100617.88;5001472;57;1139054;-79
2022/01/17 14:02:50;;;;;;;6.83;4.77;;;;;;;5.83;60.00;100646.09;4904655;59;1141455;-78
2022/01/17 14:08:13;;;;;;;16.87;5.13;;;;;;;5.40;64.22;100656.78;4960809;59;1134986;-79
2022/01/17 14:13:23;;;;;;;15.37;6.50;;;;;;;5.39;64.77;100658.56;5070625;57;1134882;-79
2022/01/17 14:18:28;;;;;;;10.47;3.53;;;;;;;4.88;64.01;100676.13;4970919;58;1134932;-77
2022/01/17 14:23:38;;;;;;;8.97;4.70;;;;;;;4.57;66.79;100709.59;5131655;57;1134832;-80
2022/01/17 14:28:50;;;;;;;442.00;198.90;;;;;;;4.35;66.61;100714.17;5131509;57;1132807;-79
2022/01/17 14:34:14;;;;;;;415.77;210.23;;;;;;;4.21;66.63;100722.70;5131557;57;1141133;-78
2022/01/17 14:39:30;;;;;;;48.03;27.07;;;;;;;4.14;69.86;100733.52;5083169;57;1141233;-80
2022/01/17 14:44:38;;;;;;;21.80;11.20;;;;;;;4.02;69.47;100738.03;5019939;58;1136987;-77
2022/01/17 14:49:54;;;;;;;65.20;30.73;;;;;;;3.88;66.90;100744.76;4968350;59;1137133;-77
2022/01/17 14:55:16;;;;;;;73.63;33.47;;;;;;;3.85;70.24;100767.13;5046011;58;1139039;-79
2022/01/17 15:05:38;;;;;;;39.20;19.23;;;;;;;3.77;70.07;100812.89;5172234;57;1139103;-77
2022/01/17 15:10:45;;;;;;;24.10;11.30;;;;;;;3.78;69.54;100845.52;5160355;56;1139198;-80
2022/01/17 15:15:51;;;;;;;46.93;23.67;;;;;;;3.72;70.62;100865.86;5139213;57;1138898;-79
2022/01/17 15:20:56;;;;;;;21.80;11.87;;;;;;;3.69;71.69;100887.77;5128930;57;1139074;-77
2022/01/17 15:26:02;;;;;;;14.30;10.07;;;;;;;3.66;70.87;100919.30;5117248;57;1138959;-78
2022/01/17 15:31:10;;;;;;;11.10;8.00;;;;;;;3.63;69.67;100932.96;5112274;56;1139134;-78
2022/01/17 15:36:18;;;;;;;13.83;7.60;;;;;;;3.60;69.30;100955.31;5105700;57;1136947;-79
2022/01/17 15:41:24;;;;;;;28.47;13.57;;;;;;;3.58;68.32;100978.91;5098564;56;1137071;-77
2022/01/17 15:46:30;;;;;;;11.47;6.77;;;;;;;3.57;70.65;100995.97;5075520;57;1139091;-79
2022/01/17 15:51:36;;;;;;;9.47;5.93;;;;;;;3.51;69.86;101005.76;5132532;56;1136970;-76
2022/01/17 15:56:42;;;;;;;12.63;5.40;;;;;;;3.51;70.17;101018.83;5079360;57;1134893;-78
2022/01/17 16:01:48;;;;;;;7.20;3.53;;;;;;;3.53;68.67;101040.55;5074125;57;1137178;-78
2022/01/17 16:06:53;;;;;;;4.27;2.13;;;;;;;3.51;68.73;101058.06;5150937;56;1135164;-81
2022/01/17 16:11:59;;;;;;;6.20;2.17;;;;;;;3.47;67.63;101070.88;5151138;56;1134825;-76
2022/01/17 16:17:08;;;;;;;16.27;3.73;;;;;;;3.43;67.76;101067.13;5138894;56;1134889;-77
2022/01/17 16:22:19;;;;;;;9.57;5.30;;;;;;;3.38;69.48;101081.69;5150904;56;1136969;-78
2022/01/17 16:27:24;;;;;;;12.10;3.87;;;;;;;3.34;69.90;101100.19;5125179;57;1134788;-77
2022/01/17 16:32:30;;;;;;;11.67;3.80;;;;;;;3.26;68.79;101108.77;5070055;57;1137212;-76
2022/01/17 16:37:36;;;;;;;2.47;1.13;;;;;;;3.21;68.51;101127.22;5161742;56;1136952;-78
2022/01/17 16:42:42;;;;;;;12.07;3.40;;;;;;;3.15;68.07;101139.23;5106502;57;1135164;-78
2022/01/17 16:47:48;;;;;;;11.17;3.03;;;;;;;3.01;70.21;101171.09;5101497;57;1136902;-77
2022/01/17 16:52:54;;;;;;;5.33;2.70;;;;;;;3.01;70.21;101171.09;5059599;58;1136986;-78
2022/01/17 16:58:00;;;;;;;9.73;3.93;;;;;;;2.95;69.48;101199.19;5143285;56;1134892;-78
2022/01/17 17:03:06;;;;;;;11.53;3.63;;;;;;;2.89;70.57;101213.80;5101622;57;1134891;-78
2022/01/17 17:08:12;;;;;;;11.13;4.27;;;;;;;2.83;70.71;101243.13;5102015;58;1136975;-77
2022/01/17 17:13:18;;;;;;;11.27;4.10;;;;;;;2.77;72.02;101245.08;5099291;58;1136919;-78
2022/01/17 17:18:26;;;;;;;11.37;5.30;;;;;;;2.73;72.56;101256.11;4980114;57;1137238;-77
2022/01/17 17:23:32;;;;;;;16.13;6.53;;;;;;;2.69;72.90;101271.92;4996277;58;1137011;-77
2022/01/17 17:28:38;;;;;;;20.07;8.80;;;;;;;2.62;72.53;101296.52;5064635;57;1137210;-77
2022/01/17 17:33:44;;;;;;;25.17;10.37;;;;;;;2.55;73.27;101309.38;5140075;56;1136984;-77
2022/01/17 17:38:49;;;;;;;25.37;8.70;;;;;;;2.46;74.17;101315.28;5101565;58;1139303;-78
2022/01/17 17:43:56;;;;;;;21.77;6.70;;;;;;;2.44;75.32;101317.09;5011776;58;1134891;-80
2022/01/17 17:49:02;;;;;;;28.77;9.67;;;;;;;2.41;75.68;101328.09;5056246;57;1134860;-78
2022/01/17 17:54:08;;;;;;;38.20;10.07;;;;;;;2.35;76.42;101330.88;5159368;56;1135087;-77
2022/01/17 17:59:14;;;;;;;26.93;10.23;;;;;;;2.28;77.49;101344.59;5177286;56;1137019;-76
2022/01/17 18:04:21;;;;;;;43.87;12.13;;;;;;;2.21;78.48;101344.36;5045010;58;1137250;-72
2022/01/17 18:09:27;;;;;;;30.00;11.17;;;;;;;2.13;79.75;101354.19;5042931;58;1136999;-69
2022/01/17 18:14:32;;;;;;;27.33;7.93;;;;;;;2.08;80.77;101350.84;5126532;57;1136987;-75
2022/01/17 18:19:38;;;;;;;17.17;7.50;;;;;;;2.00;81.73;101364.09;5111410;57;1135023;-81
2022/01/17 18:24:44;;;;;;;30.07;10.20;;;;;;;1.93;82.52;101374.31;5125921;57;1135178;-83
2022/01/17 18:29:50;;;;;;;18.00;5.57;;;;;;;1.89;83.36;101380.95;5125499;57;1136902;-69
2022/01/17 18:34:56;;;;;;;96.53;29.60;;;;;;;1.81;84.32;101395.98;5154392;57;1135116;-81
2022/01/17 18:40:03;;;;;;;20.27;5.08;;;;;;;1.70;84.80;101402.77;5160027;57;1137207;-77
2022/01/17 18:45:09;;;;;;;13.13;3.80;;;;;;;1.65;85.57;101415.09;5185659;56;1135115;-72
2022/01/17 20:15:33;;;;;;;19.97;4.03;;;;;;;1.07;92.52;101547.27;5058007;54;46124;-75
2022/01/17 20:20:44;;;;;;;14.80;3.80;;;;;;;0.99;93.42;101558.70;4983873;58;1130617;-77
2022/01/17 20:25:51;;;;;;;30.03;14.27;;;;;;;0.94;93.61;101584.41;5087200;57;1134876;-72
2022/01/17 20:30:57;;;;;;;16.83;5.37;;;;;;;0.90;93.88;101597.97;5105434;57;1135125;-79
2022/01/17 20:36:03;;;;;;;27.60;7.50;;;;;;;0.87;94.17;101604.98;5119839;56;1132758;-80
2022/01/17 20:41:10;;;;;;;13.53;4.03;;;;;;;0.84;94.41;101606.34;5033489;57;1137176;-75
2022/01/17 20:46:15;;;;;;;12.90;3.53;;;;;;;0.80;95.17;101602.93;5082865;57;1136865;-79
2022/01/17 20:51:22;;;;;;;13.80;4.53;;;;;;;0.74;95.40;101624.34;5041086;57;1136991;-80
2022/01/17 20:56:27;;;;;;;18.73;4.53;;;;;;;0.72;95.97;101630.88;5044919;57;1136960;-73
2022/01/17 21:01:33;;;;;;;27.83;6.80;;;;;;;0.68;95.83;101649.59;5069387;57;1136917;-82
2022/01/17 21:06:40;;;;;;;20.48;5.08;;;;;;;0.66;96.55;101664.39;5101724;56;1136922;-75
2022/01/17 21:11:45;;;;;;;15.97;5.37;;;;;;;0.65;96.29;101655.30;5079714;57;1136965;-74
2022/01/17 21:16:51;;;;;;;20.27;5.77;;;;;;;0.62;96.51;101660.11;4963292;58;1137044;-74
2022/01/17 21:21:57;;;;;;;19.13;4.53;;;;;;;0.58;96.50;101661.08;4999298;58;1137007;-79
2022/01/17 21:27:04;;;;;;;11.57;4.90;;;;;;;0.56;97.21;101670.66;4977159;58;1136842;-78
2022/01/17 21:32:10;;;;;;;12.30;3.37;;;;;;;0.52;97.13;101675.94;4932000;59;1136960;-76
2022/01/17 21:37:18;;;;;;;15.23;3.10;;;;;;;0.46;97.75;101683.39;4959993;59;1137267;-79
2022/01/17 21:42:24;;;;;;;10.57;3.50;;;;;;;0.42;97.88;101690.87;4960227;59;1136938;-81
2022/01/17 21:47:29;;;;;;;11.97;3.00;;;;;;;0.40;98.44;101692.63;5002015;58;1137096;-77
2022/01/17 21:52:36;;;;;;;16.93;4.53;;;;;;;0.35;99.18;101702.25;4997451;58;1137029;-77
2022/01/17 21:57:41;;;;;;;19.63;6.57;;;;;;;0.32;98.96;101709.66;5088002;57;1137232;-71
2022/01/17 22:02:48;;;;;;;120.13;50.27;;;;;;;0.30;99.60;101704.09;5057648;57;1136998;-73
2022/01/17 22:07:55;;;;;;;69.67;31.33;;;;;;;0.29;99.65;101708.43;5109301;57;1141164;-77
2022/01/17 22:13:01;;;;;;;18.70;6.57;;;;;;;0.26;100.00;101717.58;5103062;57;1139272;-71
2022/01/17 22:18:06;;;;;;;34.75;14.13;;;;;;;0.27;100.00;101724.50;5101424;57;1138895;-76
2022/01/17 22:23:13;;;;;;;22.13;5.83;;;;;;;0.26;100.00;101723.22;5098511;57;1141070;-76
2022/01/17 22:28:18;;;;;;;21.07;3.63;;;;;;;0.23;100.00;101720.66;5077346;58;1139027;-75
2022/01/17 22:33:24;;;;;;;16.55;4.20;;;;;;;0.22;100.00;101731.95;5115945;57;1139067;-79
2022/01/17 22:38:30;;;;;;;10.50;3.33;;;;;;;0.19;100.00;101735.45;5143464;57;1139041;-75
2022/01/17 22:43:36;;;;;;;19.23;2.80;;;;;;;0.20;100.00;101738.92;5059500;57;1139085;-77
2022/01/17 22:48:42;;;;;;;11.88;3.50;;;;;;;0.20;100.00;101732.41;4983664;58;1139276;-75
2022/01/17 22:53:47;;;;;;;11.83;3.10;;;;;;;0.16;100.00;101743.73;5004536;58;1139176;-83
2022/01/17 22:58:53;;;;;;;18.20;3.40;;;;;;;0.13;100.00;101756.81;5175106;56;1139172;-80
2022/01/17 23:03:59;;;;;;;17.10;3.87;;;;;;;0.09;100.00;101765.10;5228950;56;1139038;-72
2022/01/17 23:09:06;;;;;;;12.73;3.87;;;;;;;0.08;100.00;101774.22;5228661;56;1139108;-79
2022/01/17 23:14:11;;;;;;;18.73;4.83;;;;;;;0.05;100.00;101782.92;5217191;56;1139112;-81
2022/01/17 23:19:34;;;;;;;14.33;4.27;;;;;;;-0.02;100.00;101785.20;5165448;56;1139325;-72
2022/01/17 23:24:43;;;;;;;14.43;4.37;;;;;;;-0.06;100.00;101793.92;5141122;57;1141035;-77
2022/01/17 23:29:57;;;;;;;17.40;4.03;;;;;;;-0.12;100.00;101798.75;5138963;57;1141151;-71
2022/01/17 23:34:56;;;;;;;15.30;3.43;;;;;;;-0.21;100.00;101796.28;5140642;57;1141063;-74
2022/01/17 23:40:02;;;;;;;12.60;2.93;;;;;;;-0.23;100.00;101795.87;5141500;57;1141167;-80
2022/01/17 23:45:08;;;;;;;23.30;4.57;;;;;;;-0.23;100.00;101790.68;5141323;57;1139026;-71
2022/01/17 23:50:14;;;;;;;17.97;3.83;;;;;;;-0.28;100.00;101793.77;5141880;57;1138928;-76
2022/01/17 23:55:31;;;;;;;24.20;4.50;;;;;;;-0.32;100.00;101798.61;5134047;57;1139138;-83
